sensor_id;sensor_type;location;lat;lon;timestamp;pressure;altitude;pressure_sealevel;temperature;humidity
51195;BME280;37259;49.972;19.850;2023-02-01T00:00:54;98160;;;3.2;86.2
51195;BME280;37259;49.972;19.850;2023-02-01T00:01:54;98160;;;3.2;86.2
51195;BME280;37259;49.972;19.850;2023-02-01T00:02:54;98150;;;3.2;86.3
51195;BME280;37259;49.972;19.850;2023-02-01T00:03:54;98140;;;3.2;86.3
51195;BME280;37259;49.972;19.850;2023-02-01T00:04:54;98140;;;3.2;86.3
51195;BME280;37259;49.972;19.850;2023-02-01T00:05:55;98150;;;3.2;86.2
51195;BME280;37259;49.972;19.850;2023-02-01T00:06:54;98150;;;3.2;86.2
51195;BME280;37259;49.972;19.850;2023-02-01T00:07:54;98150;;;3.3;86.2
51195;BME280;37259;49.972;19.850;2023-02-01T00:08:54;98160;;;3.2;86.1
51195;BME280;37259;49.972;19.850;2023-02-01T00:09:54;98160;;;3.2;86.1
51195;BME280;37259;49.972;19.850;2023-02-01T00:10:58;98150;;;3.2;86
51195;BME280;37259;49.972;19.850;2023-02-01T00:11:54;98150;;;3.2;86
51195;BME280;37259;49.972;19.850;2023-02-01T00:12:54;98150;;;3.2;85.9
51195;BME280;37259;49.972;19.850;2023-02-01T00:13:54;98150;;;3.2;85.9
51195;BME280;37259;49.972;19.850;2023-02-01T00:14:54;98160;;;3.2;85.8
51195;BME280;37259;49.972;19.850;2023-02-01T00:15:54;98150;;;3.2;85.6
51195;BME280;37259;49.972;19.850;2023-02-01T00:16:54;98160;;;3.2;85.4
51195;BME280;37259;49.972;19.850;2023-02-01T00:17:54;98160;;;3.2;85.4
51195;BME280;37259;49.972;19.850;2023-02-01T00:18:56;98150;;;3.2;85.8
51195;BME280;37259;49.972;19.850;2023-02-01T00:19:54;98150;;;3.2;85.8
51195;BME280;37259;49.972;19.850;2023-02-01T00:20:54;98130;;;3.1;86.1
51195;BME280;37259;49.972;19.850;2023-02-01T00:21:54;98140;;;3.1;86.2
51195;BME280;37259;49.972;19.850;2023-02-01T00:22:54;98140;;;3.1;86.2
51195;BME280;37259;49.972;19.850;2023-02-01T00:23:54;98130;;;3.1;86.5
51195;BME280;37259;49.972;19.850;2023-02-01T00:24:54;98130;;;3.1;86.5
51195;BME280;37259;49.972;19.850;2023-02-01T00:25:54;98120;;;3.1;86.5
51195;BME280;37259;49.972;19.850;2023-02-01T00:26:54;98130;;;3.1;86.5
51195;BME280;37259;49.972;19.850;2023-02-01T00:27:54;98130;;;3.1;86.4
51195;BME280;37259;49.972;19.850;2023-02-01T00:28:54;98130;;;3.1;86.4
51195;BME280;37259;49.972;19.850;2023-02-01T00:29:54;98130;;;3.1;86.4
51195;BME280;37259;49.972;19.850;2023-02-01T00:30:55;98130;;;3.1;86.4
51195;BME280;37259;49.972;19.850;2023-02-01T00:31:54;98120;;;3.1;86.5
51195;BME280;37259;49.972;19.850;2023-02-01T00:32:54;98120;;;3.1;86.5
51195;BME280;37259;49.972;19.850;2023-02-01T00:33:54;98120;;;3.1;86.5
51195;BME280;37259;49.972;19.850;2023-02-01T00:34:54;98120;;;3.1;86.5
51195;BME280;37259;49.972;19.850;2023-02-01T00:35:55;98120;;;3.1;86.5
51195;BME280;37259;49.972;19.850;2023-02-01T00:36:54;98120;;;3.1;86.4
51195;BME280;37259;49.972;19.850;2023-02-01T00:37:54;98120;;;3.1;86.4
51195;BME280;37259;49.972;19.850;2023-02-01T00:38:54;98120;;;3.1;86.5
51195;BME280;37259;49.972;19.850;2023-02-01T00:39:54;98120;;;3.1;86.5
51195;BME280;37259;49.972;19.850;2023-02-01T00:40:54;98110;;;3.1;86.5
51195;BME280;37259;49.972;19.850;2023-02-01T00:41:54;98120;;;3.1;86.4
51195;BME280;37259;49.972;19.850;2023-02-01T00:42:54;98120;;;3.1;86.4
51195;BME280;37259;49.972;19.850;2023-02-01T00:43:54;98110;;;3.1;86.3
51195;BME280;37259;49.972;19.850;2023-02-01T00:44:54;98110;;;3.1;86.3
51195;BME280;37259;49.972;19.850;2023-02-01T00:45:54;98120;;;3.1;86.3
51195;BME280;37259;49.972;19.850;2023-02-01T00:46:54;98120;;;3.1;86.3
51195;BME280;37259;49.972;19.850;2023-02-01T00:47:54;98110;;;3.1;86.1
51195;BME280;37259;49.972;19.850;2023-02-01T00:48:54;98110;;;3.1;86.1
51195;BME280;37259;49.972;19.850;2023-02-01T00:49:54;98110;;;3.1;85.8
51195;BME280;37259;49.972;19.850;2023-02-01T00:50:54;98110;;;3.1;85.8
51195;BME280;37259;49.972;19.850;2023-02-01T00:51:54;98120;;;3.1;85.6
51195;BME280;37259;49.972;19.850;2023-02-01T00:52:54;98110;;;3.1;85.4
51195;BME280;37259;49.972;19.850;2023-02-01T00:53:54;98110;;;3.1;85.4
51195;BME280;37259;49.972;19.850;2023-02-01T00:54:54;98120;;;3.1;85.2
51195;BME280;37259;49.972;19.850;2023-02-01T00:55:54;98110;;;3.1;85
51195;BME280;37259;49.972;19.850;2023-02-01T00:56:54;98110;;;3.1;85
51195;BME280;37259;49.972;19.850;2023-02-01T00:57:54;98120;;;3;84.9
51195;BME280;37259;49.972;19.850;2023-02-01T00:58:54;98120;;;3;84.9
51195;BME280;37259;49.972;19.850;2023-02-01T00:59:54;98120;;;3;85
51195;BME280;37259;49.972;19.850;2023-02-01T01:01:02;98110;;;3;85
51195;BME280;37259;49.972;19.850;2023-02-01T01:01:54;98110;;;2.9;85
51195;BME280;37259;49.972;19.850;2023-02-01T01:02:54;98110;;;2.9;85
51195;BME280;37259;49.972;19.850;2023-02-01T01:03:55;98110;;;2.9;84.9
51195;BME280;37259;49.972;19.850;2023-02-01T01:04:54;98110;;;2.9;84.8
51195;BME280;37259;49.972;19.850;2023-02-01T01:05:56;98120;;;2.9;84.8
51195;BME280;37259;49.972;19.850;2023-02-01T01:06:54;98120;;;2.9;84.8
51195;BME280;37259;49.972;19.850;2023-02-01T01:07:54;98110;;;2.9;84.7
51195;BME280;37259;49.972;19.850;2023-02-01T01:08:54;98110;;;2.9;84.5
51195;BME280;37259;49.972;19.850;2023-02-01T01:09:54;98110;;;2.9;84.5
51195;BME280;37259;49.972;19.850;2023-02-01T01:10:54;98110;;;3;84.2
51195;BME280;37259;49.972;19.850;2023-02-01T01:11:54;98110;;;3;84.3
51195;BME280;37259;49.972;19.850;2023-02-01T01:12:54;98110;;;3;84.3
51195;BME280;37259;49.972;19.850;2023-02-01T01:13:54;98110;;;3;84.3
51195;BME280;37259;49.972;19.850;2023-02-01T01:14:54;98110;;;3;84.1
51195;BME280;37259;49.972;19.850;2023-02-01T01:15:54;98110;;;3;84.1
51195;BME280;37259;49.972;19.850;2023-02-01T01:16:54;98120;;;3.1;83.8
51195;BME280;37259;49.972;19.850;2023-02-01T01:17:54;98130;;;3.1;83.6
51195;BME280;37259;49.972;19.850;2023-02-01T01:18:54;98130;;;3.1;83.6
51195;BME280;37259;49.972;19.850;2023-02-01T01:19:54;98110;;;3.2;83.3
51195;BME280;37259;49.972;19.850;2023-02-01T01:20:54;98120;;;3.2;83.4
51195;BME280;37259;49.972;19.850;2023-02-01T01:21:54;98120;;;3.2;83.4
51195;BME280;37259;49.972;19.850;2023-02-01T01:22:54;98120;;;3.3;83.1
51195;BME280;37259;49.972;19.850;2023-02-01T01:23:54;98120;;;3.3;82.9
51195;BME280;37259;49.972;19.850;2023-02-01T01:24:54;98110;;;3.4;82.6
51195;BME280;37259;49.972;19.850;2023-02-01T01:25:54;98110;;;3.4;82.6
51195;BME280;37259;49.972;19.850;2023-02-01T01:26:54;98120;;;3.4;82.5
51195;BME280;37259;49.972;19.850;2023-02-01T01:27:54;98120;;;3.4;82.5
51195;BME280;37259;49.972;19.850;2023-02-01T01:28:54;98110;;;3.4;82.5
51195;BME280;37259;49.972;19.850;2023-02-01T01:29:54;98110;;;3.4;82.5
51195;BME280;37259;49.972;19.850;2023-02-01T01:30:54;98110;;;3.5;82.3
51195;BME280;37259;49.972;19.850;2023-02-01T01:31:54;98110;;;3.5;82.2
51195;BME280;37259;49.972;19.850;2023-02-01T01:32:54;98110;;;3.5;82.2
51195;BME280;37259;49.972;19.850;2023-02-01T01:33:54;98100;;;3.5;82
51195;BME280;37259;49.972;19.850;2023-02-01T01:34:54;98090;;;3.5;82.1
51195;BME280;37259;49.972;19.850;2023-02-01T01:35:54;98070;;;3.5;81.9
51195;BME280;37259;49.972;19.850;2023-02-01T01:36:54;98100;;;3.6;81.8
51195;BME280;37259;49.972;19.850;2023-02-01T01:37:54;98100;;;3.6;81.8
51195;BME280;37259;49.972;19.850;2023-02-01T01:38:54;98100;;;3.6;81.5
51195;BME280;37259;49.972;19.850;2023-02-01T01:39:54;98100;;;3.6;81.5
51195;BME280;37259;49.972;19.850;2023-02-01T01:40:54;98120;;;3.7;81.1
51195;BME280;37259;49.972;19.850;2023-02-01T01:41:54;98110;;;3.7;81.3
51195;BME280;37259;49.972;19.850;2023-02-01T01:42:54;98110;;;3.7;81.3
51195;BME280;37259;49.972;19.850;2023-02-01T01:43:55;98130;;;3.7;80.7
51195;BME280;37259;49.972;19.850;2023-02-01T01:44:55;98150;;;3.7;80.9
51195;BME280;37259;49.972;19.850;2023-02-01T01:45:54;98150;;;3.7;80.9
51195;BME280;37259;49.972;19.850;2023-02-01T01:46:54;98160;;;3.8;81.1
51195;BME280;37259;49.972;19.850;2023-02-01T01:47:54;98170;;;3.8;81.2
51195;BME280;37259;49.972;19.850;2023-02-01T01:48:57;98170;;;3.7;81.5
51195;BME280;37259;49.972;19.850;2023-02-01T01:49:54;98170;;;3.7;81.5
51195;BME280;37259;49.972;19.850;2023-02-01T01:50:54;98160;;;3.7;82.3
51195;BME280;37259;49.972;19.850;2023-02-01T01:51:55;98190;;;3.6;83.3
51195;BME280;37259;49.972;19.850;2023-02-01T01:52:54;98170;;;3.5;84.1
51195;BME280;37259;49.972;19.850;2023-02-01T01:53:56;98180;;;3.4;84.7
51195;BME280;37259;49.972;19.850;2023-02-01T01:54:54;98180;;;3.4;84.7
51195;BME280;37259;49.972;19.850;2023-02-01T01:55:54;98170;;;3.3;85.1
51195;BME280;37259;49.972;19.850;2023-02-01T01:56:55;98170;;;3.3;85.1
51195;BME280;37259;49.972;19.850;2023-02-01T01:57:55;98170;;;3.2;84.8
51195;BME280;37259;49.972;19.850;2023-02-01T01:58:54;98170;;;3.2;84.8
51195;BME280;37259;49.972;19.850;2023-02-01T01:59:55;98170;;;3.2;85.3
51195;BME280;37259;49.972;19.850;2023-02-01T02:00:54;98170;;;3.1;85
51195;BME280;37259;49.972;19.850;2023-02-01T02:01:54;98170;;;3.1;85
51195;BME280;37259;49.972;19.850;2023-02-01T02:02:55;98170;;;3.1;85
51195;BME280;37259;49.972;19.850;2023-02-01T02:03:54;98170;;;3;84.9
51195;BME280;37259;49.972;19.850;2023-02-01T02:04:54;98170;;;3;84.9
51195;BME280;37259;49.972;19.850;2023-02-01T02:05:54;98170;;;3;85.1
51195;BME280;37259;49.972;19.850;2023-02-01T02:06:54;98170;;;3;85.1
51195;BME280;37259;49.972;19.850;2023-02-01T02:07:54;98160;;;3;85.1
51195;BME280;37259;49.972;19.850;2023-02-01T02:08:54;98160;;;2.9;85.1
51195;BME280;37259;49.972;19.850;2023-02-01T02:09:54;98160;;;2.9;85
51195;BME280;37259;49.972;19.850;2023-02-01T02:10:54;98160;;;2.8;84.9
51195;BME280;37259;49.972;19.850;2023-02-01T02:11:54;98160;;;2.8;85
51195;BME280;37259;49.972;19.850;2023-02-01T02:12:54;98160;;;2.8;85
51195;BME280;37259;49.972;19.850;2023-02-01T02:13:54;98170;;;2.7;85.2
51195;BME280;37259;49.972;19.850;2023-02-01T02:14:54;98180;;;2.7;85.3
51195;BME280;37259;49.972;19.850;2023-02-01T02:15:58;98180;;;2.7;85.5
51195;BME280;37259;49.972;19.850;2023-02-01T02:16:58;98180;;;2.7;85.5
51195;BME280;37259;49.972;19.850;2023-02-01T02:17:55;98190;;;2.6;86
51195;BME280;37259;49.972;19.850;2023-02-01T02:18:57;98190;;;2.6;86
51195;BME280;37259;49.972;19.850;2023-02-01T02:20:04;98190;;;2.6;86
51195;BME280;37259;49.972;19.850;2023-02-01T02:21:02;98190;;;2.5;86.3
51195;BME280;37259;49.972;19.850;2023-02-01T02:21:56;98190;;;2.5;86.4
51195;BME280;37259;49.972;19.850;2023-02-01T02:22:59;98190;;;2.5;86.4
51195;BME280;37259;49.972;19.850;2023-02-01T02:24:15;98190;;;2.5;86.4
51195;BME280;37259;49.972;19.850;2023-02-01T02:24:59;98210;;;2.4;86.4
51195;BME280;37259;49.972;19.850;2023-02-01T02:25:59;98210;;;2.5;86.5
51195;BME280;37259;49.972;19.850;2023-02-01T02:27:03;98220;;;2.4;86.6
51195;BME280;37259;49.972;19.850;2023-02-01T02:27:56;98220;;;2.4;86.6
51195;BME280;37259;49.972;19.850;2023-02-01T02:29:01;98220;;;2.4;86.6
51195;BME280;37259;49.972;19.850;2023-02-01T02:30:16;98230;;;2.4;86.6
51195;BME280;37259;49.972;19.850;2023-02-01T02:30:59;98230;;;2.4;86.6
51195;BME280;37259;49.972;19.850;2023-02-01T02:31:58;98230;;;2.4;86.4
51195;BME280;37259;49.972;19.850;2023-02-01T02:33:00;98210;;;2.4;86.4
51195;BME280;37259;49.972;19.850;2023-02-01T02:33:57;98200;;;2.3;86.5
51195;BME280;37259;49.972;19.850;2023-02-01T02:34:55;98200;;;2.3;86.5
51195;BME280;37259;49.972;19.850;2023-02-01T02:35:55;98180;;;2.3;86.6
51195;BME280;37259;49.972;19.850;2023-02-01T02:36:56;98170;;;2.3;86.5
51195;BME280;37259;49.972;19.850;2023-02-01T02:37:55;98170;;;2.3;86.5
51195;BME280;37259;49.972;19.850;2023-02-01T02:38:56;98180;;;2.3;86.6
51195;BME280;37259;49.972;19.850;2023-02-01T02:39:55;98190;;;2.3;86.6
51195;BME280;37259;49.972;19.850;2023-02-01T02:40:56;98190;;;2.3;86.6
51195;BME280;37259;49.972;19.850;2023-02-01T02:41:55;98200;;;2.2;86.7
51195;BME280;37259;49.972;19.850;2023-02-01T02:42:56;98200;;;2.2;86.7
51195;BME280;37259;49.972;19.850;2023-02-01T02:43:55;98200;;;2.2;86.8
51195;BME280;37259;49.972;19.850;2023-02-01T02:44:55;98200;;;2.1;86.9
51195;BME280;37259;49.972;19.850;2023-02-01T02:45:55;98200;;;2.1;86.9
51195;BME280;37259;49.972;19.850;2023-02-01T02:46:54;98220;;;2.1;87
51195;BME280;37259;49.972;19.850;2023-02-01T02:47:54;98220;;;2.1;87.1
51195;BME280;37259;49.972;19.850;2023-02-01T02:48:55;98220;;;2.1;87.1
51195;BME280;37259;49.972;19.850;2023-02-01T02:49:56;98220;;;2.1;87.2
51195;BME280;37259;49.972;19.850;2023-02-01T02:50:55;98220;;;2;87.2
51195;BME280;37259;49.972;19.850;2023-02-01T02:51:55;98220;;;2;87.3
51195;BME280;37259;49.972;19.850;2023-02-01T02:52:56;98220;;;2;87.3
51195;BME280;37259;49.972;19.850;2023-02-01T02:53:56;98220;;;1.9;87.3
51195;BME280;37259;49.972;19.850;2023-02-01T02:54:54;98220;;;1.9;87.4
51195;BME280;37259;49.972;19.850;2023-02-01T02:55:54;98220;;;1.9;87.4
51195;BME280;37259;49.972;19.850;2023-02-01T02:56:55;98220;;;1.9;87.4
51195;BME280;37259;49.972;19.850;2023-02-01T02:57:54;98230;;;1.9;87.4
51195;BME280;37259;49.972;19.850;2023-02-01T02:58:54;98230;;;1.9;87.4
51195;BME280;37259;49.972;19.850;2023-02-01T02:59:54;98220;;;1.9;87.4
51195;BME280;37259;49.972;19.850;2023-02-01T03:00:54;98220;;;1.9;87.4
51195;BME280;37259;49.972;19.850;2023-02-01T03:01:54;98230;;;1.9;87.5
51195;BME280;37259;49.972;19.850;2023-02-01T03:02:54;98230;;;1.9;87.5
51195;BME280;37259;49.972;19.850;2023-02-01T03:03:54;98220;;;1.9;87.6
51195;BME280;37259;49.972;19.850;2023-02-01T03:04:54;98230;;;1.8;87.7
51195;BME280;37259;49.972;19.850;2023-02-01T03:05:54;98230;;;1.8;87.8
51195;BME280;37259;49.972;19.850;2023-02-01T03:06:54;98230;;;1.8;87.8
51195;BME280;37259;49.972;19.850;2023-02-01T03:07:56;98220;;;1.8;87.9
51195;BME280;37259;49.972;19.850;2023-02-01T03:08:54;98220;;;1.8;87.9
51195;BME280;37259;49.972;19.850;2023-02-01T03:09:54;98230;;;1.8;87.9
51195;BME280;37259;49.972;19.850;2023-02-01T03:10:55;98230;;;1.8;87.9
51195;BME280;37259;49.972;19.850;2023-02-01T03:11:57;98230;;;1.8;88
51195;BME280;37259;49.972;19.850;2023-02-01T03:12:54;98230;;;1.8;88
51195;BME280;37259;49.972;19.850;2023-02-01T03:13:55;98230;;;1.9;88
51195;BME280;37259;49.972;19.850;2023-02-01T03:14:56;98230;;;1.8;88
51195;BME280;37259;49.972;19.850;2023-02-01T03:15:56;98230;;;1.8;88
51195;BME280;37259;49.972;19.850;2023-02-01T03:16:54;98230;;;1.8;88.1
51195;BME280;37259;49.972;19.850;2023-02-01T03:17:54;98230;;;1.9;88.1
51195;BME280;37259;49.972;19.850;2023-02-01T03:18:55;98240;;;1.8;88.1
51195;BME280;37259;49.972;19.850;2023-02-01T03:19:54;98240;;;1.8;88.1
51195;BME280;37259;49.972;19.850;2023-02-01T03:20:54;98240;;;1.8;88.2
51195;BME280;37259;49.972;19.850;2023-02-01T03:21:55;98230;;;1.8;88.2
51195;BME280;37259;49.972;19.850;2023-02-01T03:22:54;98230;;;1.8;88.2
51195;BME280;37259;49.972;19.850;2023-02-01T03:23:55;98230;;;1.8;88.3
51195;BME280;37259;49.972;19.850;2023-02-01T03:24:54;98230;;;1.8;88.3
51195;BME280;37259;49.972;19.850;2023-02-01T03:25:54;98240;;;1.8;88.2
51195;BME280;37259;49.972;19.850;2023-02-01T03:26:55;98250;;;1.8;88.3
51195;BME280;37259;49.972;19.850;2023-02-01T03:27:55;98250;;;1.7;88.3
51195;BME280;37259;49.972;19.850;2023-02-01T03:28:54;98250;;;1.7;88.5
51195;BME280;37259;49.972;19.850;2023-02-01T03:29:55;98250;;;1.7;88.5
51195;BME280;37259;49.972;19.850;2023-02-01T03:30:54;98240;;;1.8;88.5
51195;BME280;37259;49.972;19.850;2023-02-01T03:31:54;98240;;;1.7;88.5
51195;BME280;37259;49.972;19.850;2023-02-01T03:32:55;98250;;;1.7;88.6
51195;BME280;37259;49.972;19.850;2023-02-01T03:33:54;98250;;;1.8;88.6
51195;BME280;37259;49.972;19.850;2023-02-01T03:34:54;98260;;;1.8;88.6
51195;BME280;37259;49.972;19.850;2023-02-01T03:35:56;98260;;;1.8;88.6
51195;BME280;37259;49.972;19.850;2023-02-01T03:36:56;98260;;;1.8;88.7
51195;BME280;37259;49.972;19.850;2023-02-01T03:37:55;98260;;;1.8;88.7
51195;BME280;37259;49.972;19.850;2023-02-01T03:38:55;98260;;;1.8;88.7
51195;BME280;37259;49.972;19.850;2023-02-01T03:39:56;98260;;;1.8;88.8
51195;BME280;37259;49.972;19.850;2023-02-01T03:40:56;98250;;;1.8;88.8
51195;BME280;37259;49.972;19.850;2023-02-01T03:41:55;98250;;;1.8;88.9
51195;BME280;37259;49.972;19.850;2023-02-01T03:42:54;98250;;;1.8;88.8
51195;BME280;37259;49.972;19.850;2023-02-01T03:43:55;98250;;;1.8;88.9
51195;BME280;37259;49.972;19.850;2023-02-01T03:44:54;98250;;;1.8;88.9
51195;BME280;37259;49.972;19.850;2023-02-01T03:45:56;98250;;;1.8;88.9
51195;BME280;37259;49.972;19.850;2023-02-01T03:46:54;98250;;;1.8;88.9
51195;BME280;37259;49.972;19.850;2023-02-01T03:47:55;98250;;;1.8;88.9
51195;BME280;37259;49.972;19.850;2023-02-01T03:48:54;98250;;;1.8;88.9
51195;BME280;37259;49.972;19.850;2023-02-01T03:49:55;98250;;;1.8;88.9
51195;BME280;37259;49.972;19.850;2023-02-01T03:50:55;98260;;;1.8;88.8
51195;BME280;37259;49.972;19.850;2023-02-01T03:51:54;98260;;;1.8;88.8
51195;BME280;37259;49.972;19.850;2023-02-01T03:52:54;98260;;;1.8;88.8
51195;BME280;37259;49.972;19.850;2023-02-01T03:53:54;98260;;;1.8;88.7
51195;BME280;37259;49.972;19.850;2023-02-01T03:54:54;98270;;;1.8;88.6
51195;BME280;37259;49.972;19.850;2023-02-01T03:55:54;98270;;;1.8;88.6
51195;BME280;37259;49.972;19.850;2023-02-01T03:56:55;98260;;;1.8;88.6
51195;BME280;37259;49.972;19.850;2023-02-01T03:57:56;98260;;;1.8;88.6
51195;BME280;37259;49.972;19.850;2023-02-01T03:58:54;98260;;;1.8;88.5
51195;BME280;37259;49.972;19.850;2023-02-01T03:59:54;98260;;;1.8;88.5
51195;BME280;37259;49.972;19.850;2023-02-01T04:00:54;98260;;;1.8;88.5
51195;BME280;37259;49.972;19.850;2023-02-01T04:01:54;98260;;;1.8;88.4
51195;BME280;37259;49.972;19.850;2023-02-01T04:02:54;98260;;;1.8;88.4
51195;BME280;37259;49.972;19.850;2023-02-01T04:03:54;98260;;;1.8;88.4
51195;BME280;37259;49.972;19.850;2023-02-01T04:04:54;98260;;;1.8;88.4
51195;BME280;37259;49.972;19.850;2023-02-01T04:05:54;98260;;;1.8;88.4
51195;BME280;37259;49.972;19.850;2023-02-01T04:06:54;98270;;;1.8;88.3
51195;BME280;37259;49.972;19.850;2023-02-01T04:07:54;98270;;;1.8;88.3
51195;BME280;37259;49.972;19.850;2023-02-01T04:08:54;98260;;;1.9;88.3
51195;BME280;37259;49.972;19.850;2023-02-01T04:09:54;98260;;;1.8;88.3
51195;BME280;37259;49.972;19.850;2023-02-01T04:10:54;98250;;;1.8;88.3
51195;BME280;37259;49.972;19.850;2023-02-01T04:11:54;98250;;;1.8;88.3
51195;BME280;37259;49.972;19.850;2023-02-01T04:12:54;98250;;;1.8;88.2
51195;BME280;37259;49.972;19.850;2023-02-01T04:13:54;98250;;;1.8;88.2
51195;BME280;37259;49.972;19.850;2023-02-01T04:14:54;98250;;;1.8;88.2
51195;BME280;37259;49.972;19.850;2023-02-01T04:15:54;98250;;;1.8;88.2
51195;BME280;37259;49.972;19.850;2023-02-01T04:16:54;98250;;;1.8;88.2
51195;BME280;37259;49.972;19.850;2023-02-01T04:17:54;98250;;;1.8;88.2
51195;BME280;37259;49.972;19.850;2023-02-01T04:18:54;98260;;;1.8;88.2
51195;BME280;37259;49.972;19.850;2023-02-01T04:19:54;98260;;;1.8;88.2
51195;BME280;37259;49.972;19.850;2023-02-01T04:20:54;98250;;;1.8;88.1
51195;BME280;37259;49.972;19.850;2023-02-01T04:21:54;98250;;;1.8;88.1
51195;BME280;37259;49.972;19.850;2023-02-01T04:22:54;98260;;;1.8;88.1
51195;BME280;37259;49.972;19.850;2023-02-01T04:23:54;98260;;;1.8;88.1
51195;BME280;37259;49.972;19.850;2023-02-01T04:24:54;98260;;;1.8;88.1
51195;BME280;37259;49.972;19.850;2023-02-01T04:25:55;98260;;;1.9;88.1
51195;BME280;37259;49.972;19.850;2023-02-01T04:26:54;98270;;;1.9;88.1
51195;BME280;37259;49.972;19.850;2023-02-01T04:27:54;98270;;;1.9;88.1
51195;BME280;37259;49.972;19.850;2023-02-01T04:28:54;98260;;;1.9;88.2
51195;BME280;37259;49.972;19.850;2023-02-01T04:29:54;98260;;;1.9;88.2
51195;BME280;37259;49.972;19.850;2023-02-01T04:30:54;98270;;;1.8;88.3
51195;BME280;37259;49.972;19.850;2023-02-01T04:31:54;98250;;;1.8;88.4
51195;BME280;37259;49.972;19.850;2023-02-01T04:32:54;98250;;;1.8;88.4
51195;BME280;37259;49.972;19.850;2023-02-01T04:33:54;98260;;;1.8;88.6
51195;BME280;37259;49.972;19.850;2023-02-01T04:34:54;98260;;;1.8;88.6
51195;BME280;37259;49.972;19.850;2023-02-01T04:35:54;98250;;;1.8;88.6
51195;BME280;37259;49.972;19.850;2023-02-01T04:36:54;98250;;;1.8;88.6
51195;BME280;37259;49.972;19.850;2023-02-01T04:37:54;98260;;;1.8;88.9
51195;BME280;37259;49.972;19.850;2023-02-01T04:38:54;98260;;;1.8;88.9
51195;BME280;37259;49.972;19.850;2023-02-01T04:39:54;98260;;;1.8;89
51195;BME280;37259;49.972;19.850;2023-02-01T04:40:54;98260;;;1.8;89.1
51195;BME280;37259;49.972;19.850;2023-02-01T04:41:54;98270;;;1.7;89.2
51195;BME280;37259;49.972;19.850;2023-02-01T04:42:54;98270;;;1.7;89.2
51195;BME280;37259;49.972;19.850;2023-02-01T04:43:54;98270;;;1.8;89.3
51195;BME280;37259;49.972;19.850;2023-02-01T04:44:54;98270;;;1.8;89.4
51195;BME280;37259;49.972;19.850;2023-02-01T04:45:54;98270;;;1.8;89.4
51195;BME280;37259;49.972;19.850;2023-02-01T04:46:54;98280;;;1.7;89.5
51195;BME280;37259;49.972;19.850;2023-02-01T04:47:54;98270;;;1.7;89.7
51195;BME280;37259;49.972;19.850;2023-02-01T04:48:54;98260;;;1.7;89.7
51195;BME280;37259;49.972;19.850;2023-02-01T04:49:54;98260;;;1.7;89.7
51195;BME280;37259;49.972;19.850;2023-02-01T04:50:54;98280;;;1.7;89.8
51195;BME280;37259;49.972;19.850;2023-02-01T04:51:54;98270;;;1.7;89.8
51195;BME280;37259;49.972;19.850;2023-02-01T04:52:54;98270;;;1.7;89.8
51195;BME280;37259;49.972;19.850;2023-02-01T04:53:54;98270;;;1.7;89.9
51195;BME280;37259;49.972;19.850;2023-02-01T04:54:54;98270;;;1.7;89.9
51195;BME280;37259;49.972;19.850;2023-02-01T04:55:54;98280;;;1.7;89.9
51195;BME280;37259;49.972;19.850;2023-02-01T04:56:54;98280;;;1.7;89.9
51195;BME280;37259;49.972;19.850;2023-02-01T04:57:54;98270;;;1.7;90
51195;BME280;37259;49.972;19.850;2023-02-01T04:58:54;98270;;;1.7;90
51195;BME280;37259;49.972;19.850;2023-02-01T04:59:54;98270;;;1.7;90
51195;BME280;37259;49.972;19.850;2023-02-01T05:00:54;98270;;;1.7;90.1
51195;BME280;37259;49.972;19.850;2023-02-01T05:01:54;98270;;;1.7;90.1
51195;BME280;37259;49.972;19.850;2023-02-01T05:02:54;98260;;;1.7;90.1
51195;BME280;37259;49.972;19.850;2023-02-01T05:03:54;98260;;;1.7;90.1
51195;BME280;37259;49.972;19.850;2023-02-01T05:04:54;98270;;;1.6;90.2
51195;BME280;37259;49.972;19.850;2023-02-01T05:05:54;98260;;;1.6;90.3
51195;BME280;37259;49.972;19.850;2023-02-01T05:06:54;98260;;;1.6;90.3
51195;BME280;37259;49.972;19.850;2023-02-01T05:07:54;98260;;;1.6;90.4
51195;BME280;37259;49.972;19.850;2023-02-01T05:08:54;98260;;;1.6;90.4
51195;BME280;37259;49.972;19.850;2023-02-01T05:09:54;98270;;;1.7;90.3
51195;BME280;37259;49.972;19.850;2023-02-01T05:10:54;98270;;;1.7;90.3
51195;BME280;37259;49.972;19.850;2023-02-01T05:11:54;98260;;;1.7;90.3
51195;BME280;37259;49.972;19.850;2023-02-01T05:12:54;98260;;;1.7;90.3
51195;BME280;37259;49.972;19.850;2023-02-01T05:13:54;98260;;;1.7;90.4
51195;BME280;37259;49.972;19.850;2023-02-01T05:14:54;98260;;;1.7;90.3
51195;BME280;37259;49.972;19.850;2023-02-01T05:15:54;98260;;;1.7;90.3
51195;BME280;37259;49.972;19.850;2023-02-01T05:16:54;98260;;;1.7;90.3
51195;BME280;37259;49.972;19.850;2023-02-01T05:17:54;98260;;;1.6;90.2
51195;BME280;37259;49.972;19.850;2023-02-01T05:18:54;98260;;;1.6;90.2
51195;BME280;37259;49.972;19.850;2023-02-01T05:19:54;98260;;;1.6;90.2
51195;BME280;37259;49.972;19.850;2023-02-01T05:20:54;98270;;;1.6;90.3
51195;BME280;37259;49.972;19.850;2023-02-01T05:21:54;98270;;;1.6;90.2
51195;BME280;37259;49.972;19.850;2023-02-01T05:22:54;98260;;;1.6;90.2
51195;BME280;37259;49.972;19.850;2023-02-01T05:23:54;98260;;;1.6;90.2
51195;BME280;37259;49.972;19.850;2023-02-01T05:24:54;98260;;;1.6;90.2
51195;BME280;37259;49.972;19.850;2023-02-01T05:25:57;98260;;;1.7;90.2
51195;BME280;37259;49.972;19.850;2023-02-01T05:26:54;98260;;;1.7;90.2
51195;BME280;37259;49.972;19.850;2023-02-01T05:27:54;98250;;;1.7;90.2
51195;BME280;37259;49.972;19.850;2023-02-01T05:28:54;98250;;;1.7;90.2
51195;BME280;37259;49.972;19.850;2023-02-01T05:29:54;98260;;;1.7;90.2
51195;BME280;37259;49.972;19.850;2023-02-01T05:30:54;98270;;;1.7;90.2
51195;BME280;37259;49.972;19.850;2023-02-01T05:31:54;98270;;;1.7;90.2
51195;BME280;37259;49.972;19.850;2023-02-01T05:32:54;98260;;;1.7;90.1
51195;BME280;37259;49.972;19.850;2023-02-01T05:33:54;98260;;;1.7;90.1
51195;BME280;37259;49.972;19.850;2023-02-01T05:34:54;98260;;;1.7;90.1
51195;BME280;37259;49.972;19.850;2023-02-01T05:35:54;98260;;;1.7;90.1
51195;BME280;37259;49.972;19.850;2023-02-01T05:36:54;98270;;;1.8;90
51195;BME280;37259;49.972;19.850;2023-02-01T05:37:54;98260;;;1.8;90
51195;BME280;37259;49.972;19.850;2023-02-01T05:38:54;98260;;;1.8;89.9
51195;BME280;37259;49.972;19.850;2023-02-01T05:39:54;98260;;;1.8;89.9
51195;BME280;37259;49.972;19.850;2023-02-01T05:40:54;98270;;;1.8;89.8
51195;BME280;37259;49.972;19.850;2023-02-01T05:41:54;98270;;;1.8;89.8